Terminal Aerodrome Forecast
Issued by NWS Milwaukee/Sullivan, WI

Home | Current Version | Previous Version | Text Only | Print | Product List | Glossary On
Versions: 1 2 3 4 5 6 7 8 9 10 11 12 13 14 15 16 17 18 19 20 21 22 23 24 25 26 27 28 29 30 31 32 33
000
FTUS43 KMKX 230522
TAFMKE
TAF
KMKE 230522Z 2306/2412 VRB04KT P6SM VCTS SCT025 BKN035CB OVC080
     FM230700 VRB05KT 3SM TSRA SCT015 BKN035 OVC050CB
     FM231000 36005KT 6SM -SHRA SCT010 OVC035
     FM231200 35007KT P6SM BKN035
     FM231900 29012KT P6SM FEW050
     FM240000 30008KT P6SM SKC=

USA.gov is the U.S. government's official web portal to all federal, state and local government web resources and services.